Burroughs, Louisiana
Current Conditions -  °F | °C
As of 2:53 PM on Thursday 27 Nov 2014 (Local Time) from KMLU Reporting Station
Clear Clear  
Wind Chill: 53°   Ceiling: Unl
Heat Index: 53°   Visibility: 10mi
Dew Point: 31°   Wind: 6mph
Humidity: 43%   Direction: 50°NE
Pressure: 30.48"   Gusts: NA
Location:  32.1631°N, 92.1971°W
Report Text: KMLU 272053Z AUTO 05005KT 10SM CLR 12/M01 A3048 RMK AO2 SLP319 T01171006 56015
Loading
Personal Weather Stations






























Interactive Weather Map New forecast layout! Learn more

10-Day Weather Forecast

Advertisements
Track Severe Weather on mobile